createdAt,value
2022-10-21T00:01:43.224Z,1217.75
2022-10-21T00:04:11.338Z,1256.22
2022-10-21T00:06:43.246Z,1238.07
2022-10-21T00:09:12.612Z,1234.60
2022-10-21T00:11:43.259Z,1264.03
2022-10-21T00:14:11.461Z,1267.25
2022-10-21T00:16:40.819Z,1219.80
2022-10-21T00:19:09.031Z,1267.68
2022-10-21T00:21:37.972Z,1280.68
2022-10-21T00:24:07.693Z,1286.45
2022-10-21T00:26:38.554Z,1332.15
2022-10-21T00:29:06.928Z,1262.40
2022-10-21T00:31:36.315Z,1211.50
2022-10-21T00:34:05.633Z,1121.90
2022-10-21T00:36:35.028Z,1138.85
2022-10-21T00:39:04.789Z,1023.78
2022-10-21T00:41:35.489Z,1093.63
2022-10-21T00:44:07.961Z,1117.05
2022-10-21T00:46:43.422Z,1112.40
2022-10-21T00:49:20.337Z,1113.57
2022-10-21T00:51:55.638Z,1013.90
2022-10-21T00:54:26.143Z,1059.72
2022-10-21T00:56:59.914Z,1099.03
2022-10-21T00:59:34.779Z,1070.28
2022-10-21T01:02:04.506Z,1055.43
2022-10-21T01:04:34.117Z,1232.35
2022-10-21T01:07:05.671Z,1251.13
2022-10-21T01:09:35.048Z,1294.88
2022-10-21T01:12:17.988Z,1245.40
2022-10-21T01:14:57.266Z,1267.55
2022-10-21T01:17:45.149Z,1258.07
2022-10-21T01:20:57.341Z,1255.38
2022-10-21T01:24:13.399Z,1062.78
2022-10-21T01:27:18.175Z,1055.95
2022-10-21T01:30:30.791Z,1117.40
2022-10-21T01:33:18.914Z,1074.90
2022-10-21T01:35:54.423Z,1110.60
2022-10-21T01:38:36.084Z,1072.32
2022-10-21T01:41:15.176Z,1181.47
2022-10-21T01:43:54.073Z,1187.72
2022-10-21T01:46:29.611Z,1183.15
2022-10-21T01:49:04.748Z,1297.65
2022-10-21T01:51:37.762Z,1316.72
2022-10-21T01:54:13.254Z,1286.07
2022-10-21T01:56:46.773Z,1248.68
2022-10-21T01:59:17.379Z,1260.32
2022-10-21T02:01:51.364Z,1263.38
2022-10-21T02:04:20.294Z,1263.03
2022-10-21T02:06:49.728Z,1235.53
2022-10-21T02:09:18.019Z,1143.00
2022-10-21T02:11:51.367Z,1107.90
2022-10-21T02:14:26.594Z,1162.40
2022-10-21T02:17:00.559Z,1159.43
2022-10-21T02:22:07.962Z,1183.63
2022-10-21T02:24:43.919Z,1133.97
2022-10-21T02:27:13.768Z,1105.10
2022-10-21T02:29:45.470Z,1092.90
2022-10-21T02:32:30.892Z,1053.18
2022-10-21T02:35:24.083Z,1038.30
2022-10-21T02:38:00.941Z,1005.60
2022-10-21T02:40:34.518Z,1023.42
2022-10-21T02:43:10.206Z,972.13
2022-10-21T02:45:39.454Z,957.28
2022-10-21T02:48:11.382Z,969.67
2022-10-21T02:50:41.100Z,986.00
2022-10-21T02:53:13.214Z,980.90
2022-10-21T02:58:11.074Z,905.00
2022-10-21T03:00:39.230Z,896.15
2022-10-21T03:03:10.046Z,879.90
2022-10-21T03:05:38.241Z,950.65
2022-10-21T03:08:08.250Z,892.72
2022-10-21T03:10:37.792Z,870.07
2022-10-21T03:13:07.207Z,835.28
2022-10-21T03:15:36.867Z,826.67
2022-10-21T03:18:06.289Z,847.28
2022-10-21T03:20:37.150Z,757.88
2022-10-21T03:23:05.350Z,795.53
2022-10-21T03:25:35.780Z,874.67
2022-10-21T03:28:05.334Z,846.65
2022-10-21T03:30:34.725Z,923.78
2022-10-21T03:33:03.230Z,922.17
2022-10-21T03:35:32.601Z,968.42
2022-10-21T03:38:04.592Z,962.35
2022-10-21T03:40:33.030Z,1006.63
2022-10-21T03:43:03.975Z,1042.57
2022-10-21T03:45:33.286Z,1106.50
2022-10-21T03:48:02.667Z,1130.97
2022-10-21T03:50:32.402Z,1150.68
2022-10-21T03:53:09.884Z,1104.30
2022-10-21T03:55:43.577Z,1119.57
2022-10-21T03:58:11.718Z,1013.25
2022-10-21T04:00:41.083Z,970.90
2022-10-21T04:03:10.587Z,953.33
2022-10-21T04:05:39.077Z,1038.50
2022-10-21T04:08:07.290Z,1019.40
2022-10-21T04:10:36.674Z,1068.30
2022-10-21T04:13:07.401Z,1038.32
2022-10-21T04:15:35.993Z,1042.18
2022-10-21T04:18:07.592Z,965.72
2022-10-21T04:20:36.918Z,987.38
2022-10-21T04:23:05.103Z,971.55
2022-10-21T04:25:34.932Z,989.95
2022-10-21T04:28:04.285Z,985.20
2022-10-21T04:30:34.975Z,1074.20
2022-10-21T04:33:03.778Z,1044.38
2022-10-21T04:35:32.164Z,1045.63
2022-10-21T04:38:01.075Z,1047.05
2022-10-21T04:40:30.413Z,1026.00
2022-10-21T04:43:01.271Z,969.72
2022-10-21T04:45:29.426Z,988.63
2022-10-21T04:47:59.033Z,996.72
2022-10-21T04:50:27.179Z,1090.13
2022-10-21T04:52:55.440Z,1227.05
2022-10-21T04:55:23.641Z,1189.88
2022-10-21T04:57:53.003Z,1024.03
2022-10-21T05:00:22.988Z,1057.93
2022-10-21T05:02:53.888Z,1032.82
2022-10-21T05:05:24.569Z,1042.97
2022-10-21T05:07:54.071Z,1019.60
2022-10-21T05:10:23.800Z,1086.30
2022-10-21T05:12:53.708Z,1008.40
2022-10-21T05:15:22.770Z,1060.22
2022-10-21T05:17:53.871Z,1096.13
2022-10-21T05:20:24.536Z,1142.18
2022-10-21T05:22:53.952Z,1200.00
2022-10-21T05:25:23.623Z,1031.40
2022-10-21T05:27:53.455Z,1018.13
2022-10-21T05:30:21.640Z,997.60
2022-10-21T05:32:49.839Z,1075.10
2022-10-21T05:35:18.287Z,1066.43
2022-10-21T05:37:49.039Z,1041.90
2022-10-21T05:40:18.895Z,1045.47
2022-10-21T05:42:49.494Z,1072.90
2022-10-21T05:45:17.835Z,1017.30
2022-10-21T05:47:47.241Z,1014.30
2022-10-21T05:50:16.841Z,1042.10
2022-10-21T05:52:46.463Z,1033.85
2022-10-21T05:55:17.294Z,1075.70
2022-10-21T05:57:47.038Z,990.78
2022-10-21T06:00:16.921Z,1003.83
2022-10-21T06:02:46.308Z,1055.15
2022-10-21T06:05:14.595Z,1054.82
2022-10-21T06:07:43.997Z,1090.20
2022-10-21T06:10:13.551Z,1222.75
2022-10-21T06:12:43.374Z,1211.90
2022-10-21T06:15:12.179Z,1322.95
2022-10-21T06:17:41.714Z,1268.63
2022-10-21T06:20:10.815Z,1322.40
2022-10-21T06:22:40.360Z,1314.93
2022-10-21T06:25:10.252Z,1315.22
2022-10-21T06:27:40.349Z,1308.10
2022-10-21T06:30:12.318Z,1280.07
2022-10-21T06:32:41.738Z,1175.10
2022-10-21T06:35:10.218Z,1282.50
2022-10-21T06:37:39.842Z,1329.63
2022-10-21T06:40:10.780Z,1289.40
2022-10-21T06:42:40.469Z,1076.10
2022-10-21T06:45:12.094Z,1139.50
2022-10-21T06:47:40.596Z,1214.82
2022-10-21T06:50:09.710Z,1228.30
2022-10-21T06:52:40.269Z,1290.78
2022-10-21T06:55:09.339Z,1187.50
2022-10-21T06:57:37.941Z,1194.43
2022-10-21T07:00:08.003Z,1158.50
2022-10-21T07:02:37.760Z,1138.10
2022-10-21T07:05:07.155Z,1183.55
2022-10-21T07:07:35.868Z,1144.95
2022-10-21T07:10:04.652Z,1064.40
2022-10-21T07:12:34.180Z,1041.68
2022-10-21T07:15:03.893Z,999.42
2022-10-21T07:17:32.085Z,948.83
2022-10-21T07:20:02.858Z,985.67
2022-10-21T07:22:33.066Z,975.80
2022-10-21T07:25:02.565Z,917.72
2022-10-21T07:27:30.793Z,915.15
2022-10-21T07:30:00.205Z,941.85
2022-10-21T07:32:29.769Z,946.60
2022-10-21T07:34:59.110Z,917.28
2022-10-21T07:37:31.111Z,898.33
2022-10-21T07:39:59.502Z,949.13
2022-10-21T07:42:30.723Z,934.30
2022-10-21T07:45:01.698Z,897.00
2022-10-21T07:47:31.112Z,889.88
2022-10-21T07:50:00.770Z,867.10
2022-10-21T07:52:31.677Z,856.97
2022-10-21T07:55:02.921Z,920.63
2022-10-21T07:57:33.863Z,881.95
2022-10-21T08:00:02.028Z,892.28
2022-10-21T08:02:31.455Z,912.05
2022-10-21T08:05:01.153Z,966.35
2022-10-21T08:07:32.291Z,942.35
2022-10-21T08:10:00.719Z,972.65
2022-10-21T08:12:28.849Z,981.20
2022-10-21T08:14:58.327Z,1001.58
2022-10-21T08:17:28.117Z,956.95
2022-10-21T08:19:56.933Z,949.65
2022-10-21T08:22:26.299Z,900.50
2022-10-21T08:24:57.120Z,963.72
2022-10-21T08:27:25.272Z,1071.63
2022-10-21T08:29:54.626Z,1016.88
2022-10-21T08:32:24.104Z,999.22
2022-10-21T08:34:53.454Z,969.53
2022-10-21T08:37:25.528Z,1055.40
2022-10-21T08:39:55.550Z,1009.40
2022-10-21T08:42:25.698Z,1005.78
2022-10-21T08:45:00.663Z,939.97
2022-10-21T08:47:36.982Z,920.67
2022-10-21T08:50:12.147Z,982.38
2022-10-21T08:52:46.026Z,975.13
2022-10-21T08:55:20.616Z,987.30
2022-10-21T08:57:54.662Z,994.78
2022-10-21T09:00:26.319Z,1003.20
2022-10-21T09:03:19.338Z,955.20
2022-10-21T09:06:24.606Z,926.60
2022-10-21T09:09:18.466Z,879.70
2022-10-21T09:12:08.987Z,878.80
2022-10-21T09:15:08.817Z,897.72
2022-10-21T09:18:08.471Z,953.40
2022-10-21T09:20:56.618Z,832.67
2022-10-21T09:23:54.398Z,768.95
2022-10-21T09:26:36.429Z,780.10
2022-10-21T09:29:28.007Z,826.75
2022-10-21T09:32:14.804Z,846.75
2022-10-21T09:34:51.377Z,777.55
2022-10-21T09:37:31.783Z,792.92
2022-10-21T09:40:16.091Z,856.72
2022-10-21T09:42:48.111Z,850.70
2022-10-21T09:45:26.963Z,738.40
2022-10-21T09:48:02.309Z,745.97
2022-10-21T09:50:35.097Z,686.30
2022-10-21T09:53:11.421Z,718.65
2022-10-21T09:55:41.320Z,756.72
2022-10-21T09:58:25.446Z,760.92
2022-10-21T10:00:55.888Z,783.15
2022-10-21T10:03:40.307Z,789.53
2022-10-21T10:06:10.253Z,827.10
2022-10-21T10:08:42.293Z,783.92
2022-10-21T10:11:18.099Z,786.63
2022-10-21T10:13:49.993Z,825.67
2022-10-21T10:19:19.026Z,905.10
2022-10-21T10:22:10.294Z,846.97
2022-10-21T10:24:41.845Z,823.90
2022-10-21T10:27:20.629Z,795.90
2022-10-21T10:29:55.030Z,800.70
2022-10-21T10:32:27.582Z,825.55
2022-10-21T10:35:04.329Z,891.50
2022-10-21T10:37:37.917Z,858.50
2022-10-21T10:40:10.636Z,920.58
2022-10-21T10:42:46.655Z,911.47
2022-10-21T10:45:21.600Z,846.97
2022-10-21T10:47:57.235Z,898.30
2022-10-21T10:50:49.029Z,964.15
2022-10-21T10:53:35.144Z,977.60
2022-10-21T10:56:24.654Z,966.28
2022-10-21T10:58:59.745Z,908.50
2022-10-21T11:01:36.424Z,966.65
2022-10-21T11:04:16.365Z,856.40
2022-10-21T11:06:54.637Z,933.38
2022-10-21T11:09:27.546Z,983.35
2022-10-21T11:14:26.127Z,891.40
2022-10-21T11:17:10.231Z,933.00
2022-10-21T11:19:51.775Z,905.25
2022-10-21T11:22:36.149Z,883.08
2022-10-21T11:25:21.150Z,975.83
2022-10-21T11:28:06.368Z,963.40
2022-10-21T11:30:53.010Z,952.08
2022-10-21T11:33:31.998Z,997.63
2022-10-21T11:36:11.126Z,1019.08
2022-10-21T11:39:21.467Z,972.42
2022-10-21T11:41:59.426Z,1043.82
2022-10-21T11:44:44.195Z,1056.88
2022-10-21T11:47:23.434Z,1128.57
2022-10-21T11:50:05.955Z,1073.40
2022-10-21T11:52:47.716Z,1089.20
2022-10-21T11:55:39.915Z,1021.28
2022-10-21T11:58:26.837Z,1069.93
2022-10-21T12:01:24.104Z,992.95
2022-10-21T12:04:39.008Z,1078.22
2022-10-21T12:07:32.505Z,1060.63
2022-10-21T12:10:07.300Z,1099.00
2022-10-21T12:12:46.182Z,1131.10
2022-10-21T12:15:21.515Z,1080.88
2022-10-21T12:17:50.808Z,1126.50
2022-10-21T12:20:24.344Z,1066.88
2022-10-21T12:23:02.172Z,1063.78
2022-10-21T12:25:39.036Z,1049.65
2022-10-21T12:28:19.240Z,1049.57
2022-10-21T12:30:56.788Z,972.97
2022-10-21T12:33:40.215Z,774.95
2022-10-21T12:38:50.910Z,774.45
2022-10-21T12:41:34.398Z,787.33
2022-10-21T12:44:18.192Z,770.13
2022-10-21T12:46:50.973Z,817.13
2022-10-21T12:49:26.955Z,820.33
2022-10-21T12:52:04.193Z,905.53
2022-10-21T12:54:44.235Z,837.70
2022-10-21T12:57:28.267Z,932.50
2022-10-21T13:00:45.256Z,884.92
2022-10-21T13:03:20.671Z,902.80
2022-10-21T13:06:07.267Z,924.47
2022-10-21T13:08:52.594Z,986.45
2022-10-21T13:11:40.296Z,1017.75
2022-10-21T13:14:35.456Z,1032.13
2022-10-21T13:17:49.911Z,1017.47
2022-10-21T13:20:50.823Z,1028.25
2022-10-21T13:23:48.067Z,1103.28
2022-10-21T13:26:25.117Z,1144.93
2022-10-21T13:29:05.373Z,779.50
2022-10-21T13:31:35.331Z,942.15
2022-10-21T13:34:27.060Z,823.72
2022-10-21T13:36:55.740Z,979.75
2022-10-21T13:39:31.040Z,986.70
2022-10-21T13:42:05.372Z,1041.38
2022-10-21T13:44:39.251Z,1038.72
2022-10-21T13:47:27.963Z,901.70
2022-10-21T13:50:09.984Z,751.58
2022-10-21T13:52:39.790Z,737.30
2022-10-21T13:55:17.979Z,778.17
2022-10-21T13:57:50.323Z,779.83
2022-10-21T14:00:23.056Z,732.90
2022-10-21T14:02:55.315Z,643.28
2022-10-21T14:05:33.720Z,791.63
2022-10-21T14:08:02.655Z,580.95
2022-10-21T14:10:33.936Z,845.03
2022-10-21T14:13:02.497Z,823.15
2022-10-21T14:15:41.391Z,812.30
2022-10-21T14:18:36.424Z,791.70
2022-10-21T14:21:14.939Z,755.20
2022-10-21T14:23:48.089Z,693.65
2022-10-21T14:26:16.849Z,880.05
2022-10-21T14:28:48.215Z,984.40
2022-10-21T14:31:19.364Z,677.00
2022-10-21T14:33:49.785Z,815.08
2022-10-21T14:36:23.536Z,860.72
2022-10-21T14:39:01.705Z,885.92
2022-10-21T14:41:33.482Z,903.55
2022-10-21T14:44:11.039Z,960.85
2022-10-21T14:46:46.682Z,943.75
2022-10-21T14:49:24.604Z,968.97
2022-10-21T14:52:00.214Z,1007.13
2022-10-21T14:54:39.087Z,1005.78
2022-10-21T14:57:39.133Z,1044.07
2022-10-21T15:00:20.521Z,1041.95
2022-10-21T15:02:49.819Z,964.67
2022-10-21T15:05:37.951Z,996.33
2022-10-21T15:08:32.556Z,1024.45
2022-10-21T15:11:24.429Z,1004.08
2022-10-21T15:14:10.673Z,912.03
2022-10-21T15:16:48.313Z,902.13
2022-10-21T15:19:21.400Z,898.22
2022-10-21T15:21:54.020Z,928.80
2022-10-21T15:24:32.256Z,924.05
2022-10-21T15:27:02.302Z,1010.28
2022-10-21T15:29:39.146Z,960.72
2022-10-21T15:32:07.740Z,998.95
2022-10-21T15:34:37.203Z,950.75
2022-10-21T15:37:07.318Z,969.95
2022-10-21T15:39:38.167Z,1024.05
2022-10-21T15:42:07.603Z,1059.80
2022-10-21T15:44:36.221Z,1071.05
2022-10-21T15:47:11.140Z,1136.50
2022-10-21T15:49:43.443Z,1029.72
2022-10-21T15:52:11.686Z,1075.30
2022-10-21T15:54:43.928Z,1088.00
2022-10-21T15:57:18.927Z,1127.55
2022-10-21T15:59:49.113Z,1154.47
2022-10-21T16:02:18.522Z,1212.47
2022-10-21T16:04:47.148Z,1188.72
2022-10-21T16:07:21.677Z,1179.20
2022-10-21T16:09:52.652Z,1045.78
2022-10-21T16:12:23.190Z,1071.28
2022-10-21T16:14:52.587Z,1058.82
2022-10-21T16:17:21.417Z,1028.93
2022-10-21T16:19:49.669Z,1037.75
2022-10-21T16:22:23.623Z,1117.97
2022-10-21T16:24:53.233Z,1066.60
2022-10-21T16:27:26.595Z,1209.90
2022-10-21T16:30:01.239Z,1125.53
2022-10-21T16:32:29.421Z,1122.28
2022-10-21T16:34:59.078Z,1111.50
2022-10-21T16:37:29.457Z,1110.90
2022-10-21T16:40:01.416Z,1206.55
2022-10-21T16:42:29.986Z,1269.75
2022-10-21T16:45:00.574Z,1120.90
2022-10-21T16:47:29.101Z,1070.95
2022-10-21T16:50:02.314Z,1137.85
2022-10-21T16:52:33.487Z,1120.38
2022-10-21T16:55:04.322Z,1178.20
2022-10-21T17:00:03.252Z,1041.40
2022-10-21T17:02:31.581Z,952.35
2022-10-21T17:05:00.967Z,1099.07
2022-10-21T17:07:30.592Z,1114.50
2022-10-21T17:09:59.974Z,995.45
2022-10-21T17:12:31.381Z,1007.13
2022-10-21T17:15:01.714Z,959.83
2022-10-21T17:17:29.885Z,976.45
2022-10-21T17:19:59.426Z,944.15
2022-10-21T17:22:27.625Z,932.20
2022-10-21T17:24:58.551Z,1006.35
2022-10-21T17:27:29.261Z,911.53
2022-10-21T17:29:57.427Z,934.83
2022-10-21T17:32:26.774Z,900.50
2022-10-21T17:34:56.805Z,1052.75
2022-10-21T17:37:26.196Z,930.88
2022-10-21T17:39:54.409Z,865.08
2022-10-21T17:42:23.813Z,844.20
2022-10-21T17:44:57.221Z,838.88
2022-10-21T17:47:26.748Z,1102.03
2022-10-21T17:49:56.682Z,928.10
2022-10-21T17:52:26.436Z,950.95
2022-10-21T17:54:54.595Z,780.72
2022-10-21T17:57:23.319Z,928.55
2022-10-21T17:59:54.678Z,785.78
2022-10-21T18:02:25.840Z,688.90
2022-10-21T18:04:54.147Z,794.53
2022-10-21T18:07:22.411Z,882.97
2022-10-21T18:09:52.984Z,970.83
2022-10-21T18:12:21.570Z,788.40
2022-10-21T18:14:51.528Z,796.58
2022-10-21T18:17:21.777Z,741.72
2022-10-21T18:19:54.047Z,898.53
2022-10-21T18:22:23.046Z,1120.55
2022-10-21T18:24:53.860Z,958.13
2022-10-21T18:27:22.051Z,767.40
2022-10-21T18:29:52.562Z,698.10
2022-10-21T18:32:20.690Z,713.83
2022-10-21T18:34:48.852Z,845.25
2022-10-21T18:37:18.355Z,651.00
2022-10-21T18:39:47.793Z,624.65
2022-10-21T18:42:15.928Z,659.58
2022-10-21T18:44:45.512Z,673.28
2022-10-21T18:47:16.172Z,619.35
2022-10-21T18:49:45.521Z,606.22
2022-10-21T18:52:14.216Z,640.30
2022-10-21T18:54:43.898Z,485.83
2022-10-21T18:57:14.103Z,505.25
2022-10-21T18:59:42.488Z,515.70
2022-10-21T19:02:19.769Z,535.55
2022-10-21T19:04:48.131Z,478.02
2022-10-21T19:07:19.596Z,478.63
2022-10-21T19:09:49.283Z,475.42
2022-10-21T19:12:23.347Z,428.42
2022-10-21T19:14:52.034Z,422.80
2022-10-21T19:17:23.329Z,449.05
2022-10-21T19:19:52.674Z,448.52
2022-10-21T19:22:23.489Z,476.60
2022-10-21T19:24:53.339Z,465.65
2022-10-21T19:27:22.690Z,481.38
2022-10-21T19:29:52.121Z,479.15
2022-10-21T19:32:20.437Z,489.13
2022-10-21T19:34:49.898Z,496.65
2022-10-21T19:37:20.505Z,489.17
2022-10-21T19:39:48.691Z,545.72
2022-10-21T19:42:20.766Z,560.65
2022-10-21T19:47:22.701Z,482.92
2022-10-21T19:49:50.854Z,426.25
2022-10-21T19:52:20.268Z,433.33
2022-10-21T19:54:52.210Z,449.13
2022-10-21T19:57:22.942Z,461.40
2022-10-21T19:59:51.267Z,463.80
2022-10-21T20:02:21.855Z,470.38
2022-10-21T20:04:49.990Z,474.25
2022-10-21T20:07:19.349Z,457.00
2022-10-21T20:09:47.985Z,455.42
2022-10-21T20:12:16.288Z,452.00
2022-10-21T20:14:47.033Z,466.88
2022-10-21T20:17:18.435Z,481.38
2022-10-21T20:19:48.616Z,462.60
2022-10-21T20:22:17.339Z,459.42
2022-10-21T20:24:46.395Z,463.73
2022-10-21T20:27:14.859Z,484.55
2022-10-21T20:29:44.403Z,484.40
2022-10-21T20:32:13.978Z,485.30
2022-10-21T20:34:44.055Z,498.25
2022-10-21T20:37:13.373Z,487.45
2022-10-21T20:39:42.856Z,461.42
2022-10-21T20:42:11.129Z,496.02
2022-10-21T20:44:40.546Z,484.00
2022-10-21T20:47:08.721Z,479.02
2022-10-21T20:49:39.671Z,488.48
2022-10-21T20:52:07.834Z,465.08
2022-10-21T20:54:36.120Z,492.48
2022-10-21T20:57:05.635Z,497.40
2022-10-21T20:59:33.788Z,479.73
2022-10-21T21:02:03.220Z,490.13
2022-10-21T21:04:32.906Z,507.58
2022-10-21T21:07:04.791Z,528.78
2022-10-21T21:09:50.681Z,509.98
2022-10-21T21:12:21.076Z,484.05
2022-10-21T21:14:49.173Z,485.27
2022-10-21T21:17:18.512Z,502.63
2022-10-21T21:19:47.858Z,474.45
2022-10-21T21:22:22.181Z,477.77
2022-10-21T21:24:50.376Z,505.52
2022-10-21T21:27:19.819Z,514.97
2022-10-21T21:29:47.938Z,480.50
2022-10-21T21:32:20.134Z,506.65
2022-10-21T21:34:55.391Z,509.88
2022-10-21T21:37:28.089Z,506.38
2022-10-21T21:39:57.750Z,506.10
2022-10-21T21:42:27.482Z,506.63
2022-10-21T21:44:55.643Z,501.02
2022-10-21T21:47:23.812Z,509.90
2022-10-21T21:49:51.908Z,498.25
2022-10-21T21:52:20.060Z,534.10
2022-10-21T21:54:54.363Z,491.35
2022-10-21T21:57:27.735Z,511.25
2022-10-21T21:59:56.411Z,537.08
2022-10-21T22:02:25.749Z,530.97
2022-10-21T22:04:55.458Z,536.08
2022-10-21T22:07:26.021Z,534.30
2022-10-21T22:09:56.686Z,569.08
2022-10-21T22:12:26.001Z,565.08
2022-10-21T22:14:54.106Z,585.90
2022-10-21T22:17:24.035Z,569.97
2022-10-21T22:19:54.064Z,576.25
2022-10-21T22:22:23.537Z,580.03
2022-10-21T22:24:51.738Z,564.92
2022-10-21T22:27:22.454Z,562.17
2022-10-21T22:29:50.572Z,557.10
2022-10-21T22:32:20.040Z,559.08
2022-10-21T22:34:49.627Z,541.50
2022-10-21T22:37:19.042Z,547.20
2022-10-21T22:39:48.427Z,547.80
2022-10-21T22:42:18.962Z,537.10
2022-10-21T22:44:49.684Z,556.42
2022-10-21T22:47:17.945Z,562.95
2022-10-21T22:49:47.314Z,567.78
2022-10-21T22:52:16.967Z,562.55
2022-10-21T22:54:50.046Z,593.35
2022-10-21T22:57:19.692Z,580.88
2022-10-21T22:59:53.040Z,618.70
2022-10-21T23:02:22.963Z,608.00
2022-10-21T23:04:52.359Z,609.15
2022-10-21T23:07:21.799Z,592.35
2022-10-21T23:09:51.337Z,611.55
2022-10-21T23:12:19.486Z,616.42
2022-10-21T23:14:48.981Z,614.10
2022-10-21T23:17:18.390Z,612.65
2022-10-21T23:19:46.979Z,622.92
2022-10-21T23:22:15.473Z,635.30
2022-10-21T23:24:44.868Z,649.90
2022-10-21T23:27:14.569Z,686.38
2022-10-21T23:29:42.725Z,688.63
2022-10-21T23:32:14.671Z,702.22
2022-10-21T23:34:42.778Z,715.40
2022-10-21T23:37:11.067Z,677.25
2022-10-21T23:39:39.822Z,669.10
2022-10-21T23:42:07.976Z,677.00
2022-10-21T23:44:37.336Z,690.15
2022-10-21T23:47:07.120Z,687.38
2022-10-21T23:49:37.852Z,659.40
2022-10-21T23:52:08.483Z,686.15
2022-10-21T23:54:37.974Z,704.22
2022-10-21T23:57:07.772Z,726.15
2022-10-21T23:59:36.503Z,710.72
